createdAt,value
2019-05-03T00:00:22.342Z,19.70
2019-05-03T00:03:02.879Z,19.70
2019-05-03T00:05:34.662Z,19.70
2019-05-03T00:08:06.386Z,19.70
2019-05-03T00:10:37.600Z,19.70
2019-05-03T00:13:08.217Z,19.70
2019-05-03T00:15:39.972Z,19.70
2019-05-03T00:18:11.707Z,19.60
2019-05-03T00:20:42.119Z,19.70
2019-05-03T00:23:13.877Z,19.70
2019-05-03T00:25:44.221Z,19.70
2019-05-03T00:28:14.428Z,19.70
2019-05-03T00:30:44.616Z,19.60
2019-05-03T00:33:14.694Z,19.70
2019-05-03T00:35:55.659Z,19.60
2019-05-03T00:38:25.708Z,19.70
2019-05-03T00:40:55.861Z,19.70
2019-05-03T00:43:27.096Z,19.60
2019-05-03T00:45:57.307Z,19.60
2019-05-03T00:48:27.508Z,19.60
2019-05-03T00:50:57.624Z,19.60
2019-05-03T00:53:27.760Z,19.60
2019-05-03T00:55:57.968Z,19.60
2019-05-03T00:58:28.487Z,19.50
2019-05-03T01:00:58.826Z,19.50
2019-05-03T01:03:28.958Z,19.50
2019-05-03T01:05:58.950Z,19.50
2019-05-03T01:08:29.144Z,19.50
2019-05-03T01:10:59.281Z,19.50
2019-05-03T01:13:29.429Z,19.50
2019-05-03T01:16:06.749Z,19.40
2019-05-03T01:18:37.124Z,19.40
2019-05-03T01:21:07.319Z,19.40
2019-05-03T01:23:37.463Z,19.40
2019-05-03T01:26:07.604Z,19.30
2019-05-03T01:28:37.665Z,19.30
2019-05-03T01:31:07.861Z,19.40
2019-05-03T01:33:38.071Z,19.30
2019-05-03T01:36:08.456Z,19.30
2019-05-03T01:38:38.643Z,19.30
2019-05-03T01:41:08.788Z,19.30
2019-05-03T01:43:38.864Z,19.30
2019-05-03T01:46:08.909Z,19.20
2019-05-03T01:48:49.817Z,19.20
2019-05-03T01:51:33.569Z,19.20
2019-05-03T01:54:02.836Z,19.20
2019-05-03T01:56:32.812Z,19.20
2019-05-03T01:59:02.965Z,19.20
2019-05-03T02:01:34.754Z,19.20
2019-05-03T02:04:06.603Z,19.20
2019-05-03T02:06:36.866Z,19.20
2019-05-03T02:09:08.689Z,19.20
2019-05-03T02:11:39.237Z,19.20
2019-05-03T02:14:09.383Z,19.20
2019-05-03T02:16:39.420Z,19.10
2019-05-03T02:19:12.651Z,19.10
2019-05-03T02:21:42.780Z,19.10
2019-05-03T02:24:14.000Z,19.10
2019-05-03T02:26:44.075Z,19.10
2019-05-03T02:29:14.293Z,19.00
2019-05-03T02:31:44.413Z,19.10
2019-05-03T02:34:14.472Z,19.00
2019-05-03T02:36:44.689Z,19.10
2019-05-03T02:39:16.375Z,19.00
2019-05-03T02:41:49.538Z,19.00
2019-05-03T02:44:19.897Z,19.00
2019-05-03T02:46:57.446Z,19.00
2019-05-03T02:49:35.255Z,19.00
2019-05-03T02:52:06.605Z,19.00
2019-05-03T02:54:37.089Z,19.00
2019-05-03T02:57:07.288Z,18.90
2019-05-03T02:59:37.345Z,18.90
2019-05-03T03:02:07.486Z,18.90
2019-05-03T03:04:37.680Z,18.90
2019-05-03T03:07:08.690Z,18.80
2019-05-03T03:09:39.084Z,18.80
2019-05-03T03:12:09.732Z,18.80
2019-05-03T03:14:41.524Z,18.80
2019-05-03T03:17:14.938Z,18.80
2019-05-03T03:19:46.260Z,18.80
2019-05-03T03:22:17.907Z,18.70
2019-05-03T03:24:51.168Z,18.70
2019-05-03T03:27:25.694Z,18.70
2019-05-03T03:30:10.176Z,18.60
2019-05-03T03:32:41.440Z,18.60
2019-05-03T03:35:20.257Z,18.60
2019-05-03T03:37:46.518Z,18.60
2019-05-03T03:40:18.279Z,18.60
2019-05-03T03:42:50.861Z,18.60
2019-05-03T03:45:21.016Z,18.60
2019-05-03T03:47:56.111Z,18.60
2019-05-03T03:50:26.232Z,18.60
2019-05-03T03:53:00.208Z,18.50
2019-05-03T03:55:32.236Z,18.50
2019-05-03T03:58:03.053Z,18.50
2019-05-03T04:00:35.976Z,18.50
2019-05-03T04:03:05.981Z,18.50
2019-05-03T04:05:36.382Z,18.40
2019-05-03T04:08:06.520Z,18.40
2019-05-03T04:10:36.830Z,18.40
2019-05-03T04:13:09.178Z,18.50
2019-05-03T04:15:41.140Z,18.40
2019-05-03T04:18:16.562Z,18.40
2019-05-03T04:20:47.749Z,18.40
2019-05-03T04:23:19.458Z,18.40
2019-05-03T04:25:49.747Z,18.40
2019-05-03T04:28:21.250Z,18.30
2019-05-03T04:30:51.279Z,18.30
2019-05-03T04:33:21.477Z,18.30
2019-05-03T04:35:51.600Z,18.30
2019-05-03T04:38:21.729Z,18.30
2019-05-03T04:40:51.801Z,18.30
2019-05-03T04:43:26.136Z,18.30
2019-05-03T04:46:06.654Z,18.30
2019-05-03T04:48:36.932Z,18.30
2019-05-03T04:51:08.074Z,18.40
2019-05-03T04:53:39.879Z,18.30
2019-05-03T04:56:10.049Z,18.30
2019-05-03T04:58:40.241Z,18.40
2019-05-03T05:01:10.379Z,18.30
2019-05-03T05:03:40.505Z,18.40
2019-05-03T05:06:10.938Z,18.30
2019-05-03T05:08:41.012Z,18.40
2019-05-03T05:11:11.209Z,18.40
2019-05-03T05:13:41.333Z,18.10
2019-05-03T05:16:11.524Z,17.90
2019-05-03T05:18:45.556Z,17.80
2019-05-03T05:21:16.803Z,17.70
2019-05-03T05:24:05.276Z,17.60
2019-05-03T05:26:45.513Z,17.60
2019-05-03T05:29:25.207Z,17.60
2019-05-03T05:31:54.895Z,17.70
2019-05-03T05:34:25.100Z,17.80
2019-05-03T05:36:55.425Z,17.70
2019-05-03T05:39:26.611Z,17.80
2019-05-03T05:41:56.665Z,18.00
2019-05-03T05:44:26.791Z,18.10
2019-05-03T05:47:05.074Z,18.30
2019-05-03T05:49:48.530Z,18.40
2019-05-03T05:52:18.760Z,18.50
2019-05-03T05:54:51.464Z,18.60
2019-05-03T05:57:35.509Z,18.60
2019-05-03T06:00:20.729Z,18.60
2019-05-03T06:02:50.871Z,18.60
2019-05-03T06:05:21.420Z,18.80
2019-05-03T06:08:10.656Z,19.00
2019-05-03T06:10:42.383Z,19.20
2019-05-03T06:13:17.139Z,19.40
2019-05-03T06:15:54.911Z,19.50
2019-05-03T06:18:26.641Z,19.60
2019-05-03T06:21:16.808Z,19.70
2019-05-03T06:23:56.263Z,19.70
2019-05-03T06:26:36.481Z,19.70
2019-05-03T06:29:07.282Z,19.70
2019-05-03T06:31:41.520Z,19.70
2019-05-03T06:34:11.581Z,19.70
2019-05-03T06:36:44.562Z,19.70
2019-05-03T06:39:15.501Z,19.70
2019-05-03T06:41:45.635Z,19.60
2019-05-03T06:44:19.144Z,19.70
2019-05-03T06:46:52.560Z,19.80
2019-05-03T06:49:22.688Z,19.80
2019-05-03T06:51:54.476Z,20.00
2019-05-03T06:54:28.360Z,20.10
2019-05-03T06:57:00.161Z,20.30
2019-05-03T06:59:42.275Z,20.40
2019-05-03T07:02:20.043Z,20.60
2019-05-03T07:04:51.752Z,20.80
2019-05-03T07:07:39.815Z,21.00
2019-05-03T07:10:24.919Z,21.20
2019-05-03T07:12:58.030Z,21.50
2019-05-03T07:15:28.293Z,21.90
2019-05-03T07:17:58.568Z,22.10
2019-05-03T07:20:28.612Z,22.40
2019-05-03T07:22:58.750Z,22.60
2019-05-03T07:25:28.890Z,22.60
2019-05-03T07:27:58.883Z,22.60
2019-05-03T07:30:28.953Z,22.40
2019-05-03T07:33:00.805Z,22.40
2019-05-03T07:35:30.944Z,22.30
2019-05-03T07:38:01.067Z,22.20
2019-05-03T07:40:31.256Z,22.10
2019-05-03T07:43:01.312Z,22.00
2019-05-03T07:45:31.374Z,21.90
2019-05-03T07:48:01.366Z,21.80
2019-05-03T07:50:33.178Z,21.80
2019-05-03T07:53:04.648Z,21.70
2019-05-03T07:55:54.840Z,21.70
2019-05-03T07:58:29.528Z,21.60
2019-05-03T08:01:09.327Z,21.50
2019-05-03T08:03:35.695Z,21.50
2019-05-03T08:06:06.233Z,21.50
2019-05-03T08:08:36.435Z,21.40
2019-05-03T08:11:06.701Z,21.30
2019-05-03T08:13:37.223Z,21.30
2019-05-03T08:16:07.346Z,21.30
2019-05-03T08:18:37.470Z,21.30
2019-05-03T08:21:07.524Z,21.30
2019-05-03T08:23:38.029Z,21.20
2019-05-03T08:26:08.077Z,21.20
2019-05-03T08:28:38.202Z,20.90
2019-05-03T08:31:09.967Z,21.00
2019-05-03T08:33:57.006Z,21.10
2019-05-03T08:36:27.137Z,21.00
2019-05-03T08:38:57.337Z,20.90
2019-05-03T08:41:29.125Z,20.90
2019-05-03T08:43:59.236Z,20.90
2019-05-03T08:46:29.445Z,21.00
2019-05-03T08:48:59.992Z,21.00
2019-05-03T08:51:30.119Z,21.10
2019-05-03T08:54:00.200Z,21.10
2019-05-03T08:56:30.287Z,21.10
2019-05-03T08:59:01.512Z,21.10
2019-05-03T09:01:31.589Z,21.20
2019-05-03T09:04:01.666Z,21.30
2019-05-03T09:06:31.776Z,21.40
2019-05-03T09:09:01.969Z,21.50
2019-05-03T09:11:36.697Z,21.60
2019-05-03T09:14:07.268Z,21.60
2019-05-03T09:16:37.338Z,21.60
2019-05-03T09:19:07.479Z,21.70
2019-05-03T09:21:37.608Z,21.70
2019-05-03T09:24:08.024Z,21.70
2019-05-03T09:26:38.014Z,21.80
2019-05-03T09:29:08.285Z,21.80
2019-05-03T09:31:38.782Z,21.70
2019-05-03T09:34:08.765Z,21.80
2019-05-03T09:36:38.961Z,21.60
2019-05-03T09:39:09.098Z,21.70
2019-05-03T09:41:39.123Z,21.80
2019-05-03T09:44:09.252Z,21.80
2019-05-03T09:46:39.448Z,21.90
2019-05-03T09:49:13.887Z,21.90
2019-05-03T09:51:41.390Z,21.80
2019-05-03T09:54:14.869Z,21.60
2019-05-03T09:56:58.773Z,21.50
2019-05-03T09:59:29.788Z,21.60
2019-05-03T10:02:00.640Z,21.50
2019-05-03T10:04:30.771Z,21.50
2019-05-03T10:07:00.973Z,21.50
2019-05-03T10:09:31.202Z,21.60
2019-05-03T10:12:02.033Z,21.70
2019-05-03T10:14:32.014Z,21.90
2019-05-03T10:17:20.452Z,22.00
2019-05-03T10:19:51.836Z,22.10
2019-05-03T10:22:25.298Z,22.10
2019-05-03T10:24:56.552Z,22.10
2019-05-03T10:27:26.684Z,22.10
2019-05-03T10:30:09.591Z,22.10
2019-05-03T10:32:36.117Z,22.10
2019-05-03T10:35:08.603Z,22.20
2019-05-03T10:37:38.795Z,22.30
2019-05-03T10:40:10.320Z,22.40
2019-05-03T10:42:40.521Z,22.50
2019-05-03T10:45:10.836Z,22.60
2019-05-03T10:47:40.982Z,22.60
2019-05-03T10:50:11.476Z,22.70
2019-05-03T10:52:52.192Z,22.70
2019-05-03T10:55:25.033Z,22.80
2019-05-03T10:58:11.867Z,22.80
2019-05-03T11:00:50.266Z,22.80
2019-05-03T11:03:16.595Z,22.90
2019-05-03T11:05:46.719Z,22.90
2019-05-03T11:08:17.933Z,22.90
2019-05-03T11:10:48.364Z,22.90
2019-05-03T11:13:18.368Z,22.90
2019-05-03T11:15:48.579Z,22.90
2019-05-03T11:18:20.180Z,22.90
2019-05-03T11:20:50.247Z,22.90
2019-05-03T11:23:20.461Z,22.80
2019-05-03T11:25:50.519Z,22.80
2019-05-03T11:28:22.296Z,22.70
2019-05-03T11:30:59.112Z,22.70
2019-05-03T11:33:29.796Z,22.70
2019-05-03T11:36:16.664Z,22.60
2019-05-03T11:38:49.666Z,22.60
2019-05-03T11:41:30.276Z,22.60
2019-05-03T11:43:51.715Z,22.50
2019-05-03T11:46:21.864Z,22.50
2019-05-03T11:48:51.919Z,22.50
2019-05-03T11:51:24.471Z,22.50
2019-05-03T11:53:54.026Z,22.50
2019-05-03T11:56:24.990Z,22.50
2019-05-03T11:58:55.438Z,22.60
2019-05-03T12:01:28.008Z,22.60
2019-05-03T12:03:58.452Z,22.60
2019-05-03T12:06:28.589Z,22.60
2019-05-03T12:08:58.714Z,22.60
2019-05-03T12:11:30.412Z,22.70
2019-05-03T12:14:14.834Z,22.70
2019-05-03T12:17:14.599Z,22.70
2019-05-03T12:19:30.135Z,22.70
2019-05-03T12:21:56.618Z,22.70
2019-05-03T12:24:27.707Z,22.70
2019-05-03T12:26:58.212Z,22.70
2019-05-03T12:29:28.625Z,22.70
2019-05-03T12:31:58.763Z,22.70
2019-05-03T12:34:28.901Z,22.80
2019-05-03T12:36:59.072Z,22.70
2019-05-03T12:39:30.547Z,22.80
2019-05-03T12:42:00.944Z,22.70
2019-05-03T12:44:31.155Z,22.70
2019-05-03T12:47:02.689Z,22.80
2019-05-03T12:49:33.000Z,22.80
2019-05-03T12:52:05.095Z,22.80
2019-05-03T12:54:35.624Z,22.80
2019-05-03T12:57:06.271Z,22.80
2019-05-03T12:59:38.051Z,22.80
2019-05-03T13:02:27.201Z,22.80
2019-05-03T13:04:57.351Z,22.80
2019-05-03T13:07:29.031Z,22.80
2019-05-03T13:10:00.240Z,22.80
2019-05-03T13:12:31.067Z,22.80
2019-05-03T13:15:01.284Z,22.80
2019-05-03T13:17:36.247Z,22.80
2019-05-03T13:20:09.219Z,22.70
2019-05-03T13:22:39.352Z,22.70
2019-05-03T13:25:10.374Z,22.60
2019-05-03T13:27:40.606Z,22.60
2019-05-03T13:30:11.116Z,22.60
2019-05-03T13:32:41.313Z,22.60
2019-05-03T13:35:11.732Z,22.50
2019-05-03T13:37:41.955Z,22.50
2019-05-03T13:40:12.381Z,22.40
2019-05-03T13:42:54.283Z,22.40
2019-05-03T13:45:14.857Z,22.20
2019-05-03T13:47:45.067Z,22.20
2019-05-03T13:50:15.349Z,22.10
2019-05-03T13:52:45.881Z,22.00
2019-05-03T13:55:16.022Z,21.90
2019-05-03T13:57:46.151Z,21.90
2019-05-03T14:00:16.593Z,21.80
2019-05-03T14:02:46.760Z,21.80
2019-05-03T14:05:16.876Z,21.80
2019-05-03T14:07:47.009Z,21.70
2019-05-03T14:10:17.393Z,21.70
2019-05-03T14:12:47.512Z,21.70
2019-05-03T14:15:17.734Z,21.60
2019-05-03T14:17:47.708Z,21.60
2019-05-03T14:20:26.299Z,21.60
2019-05-03T14:22:56.541Z,21.50
2019-05-03T14:25:26.647Z,21.50
2019-05-03T14:27:59.409Z,21.50
2019-05-03T14:30:28.394Z,21.50
2019-05-03T14:32:58.577Z,21.50
2019-05-03T14:35:28.708Z,21.40
2019-05-03T14:37:58.864Z,21.40
2019-05-03T14:40:29.003Z,21.30
2019-05-03T14:42:59.139Z,21.30
2019-05-03T14:45:29.375Z,21.30
2019-05-03T14:47:59.516Z,21.20
2019-05-03T14:50:29.577Z,21.20
2019-05-03T14:52:59.712Z,21.20
2019-05-03T14:55:31.341Z,21.20
2019-05-03T14:58:03.121Z,21.20
2019-05-03T15:00:34.896Z,21.20
2019-05-03T15:03:06.923Z,21.20
2019-05-03T15:05:36.980Z,21.20
2019-05-03T15:08:07.126Z,21.30
2019-05-03T15:10:37.245Z,21.30
2019-05-03T15:13:07.607Z,21.30
2019-05-03T15:15:37.641Z,21.30
2019-05-03T15:18:07.795Z,21.30
2019-05-03T15:20:40.938Z,21.30
2019-05-03T15:23:09.636Z,21.30
2019-05-03T15:25:39.752Z,21.30
2019-05-03T15:28:09.764Z,21.30
2019-05-03T15:30:40.327Z,21.40
2019-05-03T15:33:10.526Z,21.40
2019-05-03T15:35:43.611Z,21.40
2019-05-03T15:38:14.187Z,21.40
2019-05-03T15:40:46.187Z,21.40
2019-05-03T15:43:17.576Z,21.40
2019-05-03T15:45:49.281Z,21.40
2019-05-03T15:48:21.030Z,21.40
2019-05-03T15:50:51.154Z,21.40
2019-05-03T15:53:22.276Z,21.30
2019-05-03T15:55:54.836Z,21.30
2019-05-03T15:58:24.949Z,21.30
2019-05-03T16:00:55.576Z,21.30
2019-05-03T16:03:25.877Z,21.30
2019-05-03T16:05:56.088Z,21.30
2019-05-03T16:08:27.291Z,21.40
2019-05-03T16:10:57.504Z,21.30
2019-05-03T16:13:27.632Z,21.40
2019-05-03T16:15:57.811Z,21.40
2019-05-03T16:18:27.936Z,21.40
2019-05-03T16:20:58.143Z,21.40
2019-05-03T16:23:28.418Z,21.30
2019-05-03T16:25:58.633Z,21.30
2019-05-03T16:28:33.291Z,21.30
2019-05-03T16:31:05.195Z,21.30
2019-05-03T16:33:35.344Z,21.30
2019-05-03T16:36:05.580Z,21.30
2019-05-03T16:38:38.712Z,21.20
2019-05-03T16:41:08.784Z,21.20
2019-05-03T16:43:38.857Z,21.20
2019-05-03T16:46:09.080Z,21.20
2019-05-03T16:48:39.552Z,21.20
2019-05-03T16:51:09.757Z,21.20
2019-05-03T16:53:39.951Z,21.20
2019-05-03T16:56:10.069Z,21.20
2019-05-03T16:58:40.208Z,21.20
2019-05-03T17:01:10.256Z,21.20
2019-05-03T17:03:45.438Z,21.20
2019-05-03T17:06:34.875Z,21.10
2019-05-03T17:09:10.911Z,21.20
2019-05-03T17:11:42.547Z,21.10
2019-05-03T17:14:12.673Z,21.10
2019-05-03T17:16:42.888Z,21.10
2019-05-03T17:19:14.736Z,21.10
2019-05-03T17:21:45.292Z,21.10
2019-05-03T17:24:17.015Z,21.10
2019-05-03T17:26:46.992Z,21.00
2019-05-03T17:29:17.208Z,21.00
2019-05-03T17:31:47.326Z,20.90
2019-05-03T17:34:17.377Z,20.80
2019-05-03T17:36:47.423Z,20.60
2019-05-03T17:39:19.217Z,20.50
2019-05-03T17:41:54.668Z,20.40
2019-05-03T17:44:29.880Z,20.40
2019-05-03T17:46:59.950Z,20.40
2019-05-03T17:49:29.996Z,20.30
2019-05-03T17:52:01.756Z,20.20
2019-05-03T17:54:45.565Z,20.10
2019-05-03T17:57:31.749Z,20.00
2019-05-03T18:00:04.223Z,19.90
2019-05-03T18:02:37.678Z,19.80
2019-05-03T18:05:26.836Z,19.70
2019-05-03T18:07:58.915Z,19.70
2019-05-03T18:10:30.640Z,19.60
2019-05-03T18:13:00.703Z,19.60
2019-05-03T18:15:30.829Z,19.50
2019-05-03T18:18:01.035Z,19.50
2019-05-03T18:20:31.305Z,19.40
2019-05-03T18:23:01.432Z,19.40
2019-05-03T18:25:31.621Z,19.30
2019-05-03T18:28:01.824Z,19.30
2019-05-03T18:30:31.915Z,19.20
2019-05-03T18:33:02.040Z,19.20
2019-05-03T18:35:32.263Z,19.20
2019-05-03T18:38:03.451Z,19.10
2019-05-03T18:40:35.416Z,19.10
2019-05-03T18:43:07.512Z,19.10
2019-05-03T18:45:54.893Z,19.00
2019-05-03T18:48:26.605Z,19.00
2019-05-03T18:50:56.803Z,19.00
2019-05-03T18:53:26.852Z,18.90
2019-05-03T18:55:56.984Z,18.90
2019-05-03T18:58:27.178Z,18.90
2019-05-03T19:00:57.246Z,18.80
2019-05-03T19:03:27.292Z,18.80
2019-05-03T19:05:59.531Z,18.80
2019-05-03T19:08:44.536Z,18.80
2019-05-03T19:11:32.680Z,18.70
2019-05-03T19:14:14.895Z,18.70
2019-05-03T19:17:05.146Z,18.70
2019-05-03T19:19:40.069Z,18.70
2019-05-03T19:22:10.293Z,18.70
2019-05-03T19:24:40.438Z,18.70
2019-05-03T19:27:11.435Z,18.70
2019-05-03T19:29:41.517Z,18.80
2019-05-03T19:32:11.713Z,18.80
2019-05-03T19:34:48.419Z,18.80
2019-05-03T19:37:14.555Z,18.80
2019-05-03T19:39:44.883Z,18.80
2019-05-03T19:42:14.945Z,18.80
2019-05-03T19:44:45.380Z,18.80
2019-05-03T19:47:15.826Z,18.80
2019-05-03T19:49:45.895Z,18.80
2019-05-03T19:52:17.784Z,18.80
2019-05-03T19:54:47.933Z,18.80
2019-05-03T19:57:19.711Z,18.80
2019-05-03T19:59:56.929Z,18.80
2019-05-03T20:02:40.821Z,18.80
2019-05-03T20:05:11.831Z,18.80
2019-05-03T20:07:54.253Z,18.70
2019-05-03T20:10:25.406Z,18.70
2019-05-03T20:12:55.652Z,18.80
2019-05-03T20:15:26.107Z,18.80
2019-05-03T20:18:00.040Z,18.90
2019-05-03T20:20:27.951Z,18.90
2019-05-03T20:22:59.071Z,18.90
2019-05-03T20:25:29.151Z,19.00
2019-05-03T20:27:59.679Z,19.00
2019-05-03T20:30:29.946Z,19.00
2019-05-03T20:33:00.096Z,19.00
2019-05-03T20:35:30.560Z,19.00
2019-05-03T20:38:00.688Z,19.00
2019-05-03T20:40:30.818Z,19.00
2019-05-03T20:43:05.934Z,19.00
2019-05-03T20:45:37.625Z,19.00
2019-05-03T20:48:12.025Z,18.90
2019-05-03T20:50:42.163Z,18.90
2019-05-03T20:53:12.233Z,19.00
2019-05-03T20:55:42.213Z,18.90
2019-05-03T20:58:12.260Z,18.90
2019-05-03T21:00:42.742Z,18.90
2019-05-03T21:03:12.951Z,18.90
2019-05-03T21:05:44.618Z,18.80
2019-05-03T21:08:14.882Z,18.80
2019-05-03T21:10:46.066Z,18.80
2019-05-03T21:13:17.192Z,18.80
2019-05-03T21:15:48.958Z,18.70
2019-05-03T21:18:26.656Z,18.80
2019-05-03T21:20:58.384Z,18.70
2019-05-03T21:23:38.841Z,18.70
2019-05-03T21:26:13.502Z,18.70
2019-05-03T21:28:41.537Z,18.70
2019-05-03T21:31:11.772Z,18.60
2019-05-03T21:33:41.811Z,18.60
2019-05-03T21:36:12.133Z,18.60
2019-05-03T21:38:44.294Z,18.60
2019-05-03T21:41:15.637Z,18.60
2019-05-03T21:43:46.059Z,18.60
2019-05-03T21:46:25.512Z,18.60
2019-05-03T21:49:00.288Z,18.60
2019-05-03T21:51:30.433Z,18.60
2019-05-03T21:54:00.889Z,18.60
2019-05-03T21:56:31.423Z,18.50
2019-05-03T21:59:02.544Z,18.50
2019-05-03T22:01:34.622Z,18.40
2019-05-03T22:04:04.543Z,18.40
2019-05-03T22:06:35.064Z,18.40
2019-05-03T22:09:06.052Z,18.40
2019-05-03T22:11:37.810Z,18.50
2019-05-03T22:14:09.443Z,18.50
2019-05-03T22:16:41.167Z,18.50
2019-05-03T22:19:11.225Z,18.50
2019-05-03T22:21:44.819Z,18.50
2019-05-03T22:24:22.431Z,18.40
2019-05-03T22:26:57.855Z,18.40
2019-05-03T22:29:28.967Z,18.40
2019-05-03T22:31:59.251Z,18.40
2019-05-03T22:34:29.369Z,18.40
2019-05-03T22:37:00.603Z,18.40
2019-05-03T22:39:30.789Z,18.40
2019-05-03T22:42:00.938Z,18.40
2019-05-03T22:44:31.438Z,18.40
2019-05-03T22:47:01.635Z,18.30
2019-05-03T22:49:31.820Z,18.30
2019-05-03T22:52:02.319Z,18.30
2019-05-03T22:54:34.531Z,18.30
2019-05-03T22:57:04.835Z,18.20
2019-05-03T22:59:35.106Z,18.20
2019-05-03T23:02:05.662Z,18.20
2019-05-03T23:04:35.738Z,18.10
2019-05-03T23:07:05.920Z,18.10
2019-05-03T23:09:36.433Z,18.10
2019-05-03T23:12:06.551Z,18.10
2019-05-03T23:14:36.678Z,18.00
2019-05-03T23:17:06.947Z,18.00
2019-05-03T23:19:38.773Z,17.90
2019-05-03T23:22:10.468Z,17.90
2019-05-03T23:24:40.679Z,17.90
2019-05-03T23:27:10.753Z,17.80
2019-05-03T23:29:40.869Z,17.90
2019-05-03T23:32:10.862Z,17.80
2019-05-03T23:34:40.993Z,17.80
2019-05-03T23:37:11.121Z,17.80
2019-05-03T23:39:41.248Z,17.80
2019-05-03T23:42:11.345Z,17.70
2019-05-03T23:44:41.349Z,17.70
2019-05-03T23:47:25.229Z,17.70
2019-05-03T23:49:55.529Z,17.60
2019-05-03T23:52:27.296Z,17.60
2019-05-03T23:54:59.976Z,17.60
2019-05-03T23:57:30.108Z,17.60
